Time;durP1;ratioP1;P1;durP2;ratioP2;P2;SDS_P1;SDS_P2;PMS_P1;PMS_P2;Temp;Humidity;BMP_temperature;BMP_pressure;BME280_temperature;BME280_humidity;BME280_pressure;Samples;Min_cycle;Max_cycle;Signal;HPM_P1;HPM_P2
2021/04/05 00:00:15;;;;;;;5.20;4.42;;;;;;;1.39;74.99;98825.28;1782660;79;21139;-56
2021/04/05 00:02:42;;;;;;;5.92;4.53;;;;;;;1.39;75.13;98828.74;1799791;79;21142;-56
2021/04/05 00:05:14;;;;;;;5.33;4.55;;;;;;;1.38;75.28;98821.86;1799144;79;21174;-56
2021/04/05 00:07:44;;;;;;;6.03;4.58;;;;;;;1.36;75.49;98826.84;1797101;78;20985;-57
2021/04/05 00:10:17;;;;;;;5.85;4.42;;;;;;;1.34;75.69;98818.29;1783566;79;22048;-56
2021/04/05 00:12:44;;;;;;;5.80;4.70;;;;;;;1.31;75.88;98815.92;1773060;79;21107;-58
2021/04/05 00:15:13;;;;;;;7.80;5.70;;;;;;;1.27;76.11;98814.05;1771662;79;21117;-60
2021/04/05 00:17:41;;;;;;;8.53;5.78;;;;;;;1.27;76.30;98819.77;1786118;79;21728;-59
2021/04/05 00:20:15;;;;;;;6.22;5.15;;;;;;;1.22;76.49;98814.92;1791467;79;21185;-57
2021/04/05 00:22:43;;;;;;;6.67;5.20;;;;;;;1.19;76.73;98810.77;1771724;79;22276;-57
2021/04/05 00:25:14;;;;;;;7.47;5.70;;;;;;;1.20;76.91;98808.95;1783437;79;21100;-58
2021/04/05 00:27:42;;;;;;;6.42;5.78;;;;;;;1.18;77.06;98802.55;1783380;79;21244;-56
2021/04/05 00:30:18;;;;;;;7.12;5.33;;;;;;;1.17;77.23;98796.94;1771685;79;21147;-59
2021/04/05 00:32:47;;;;;;;6.90;5.80;;;;;;;1.16;77.33;98793.98;1778758;79;21110;-57
2021/04/05 00:35:19;;;;;;;7.40;5.97;;;;;;;1.14;77.45;98788.05;1771799;79;21284;-59
2021/04/05 00:37:48;;;;;;;6.97;5.62;;;;;;;1.10;77.56;98787.10;1775878;79;21149;-57
2021/04/05 00:40:19;;;;;;;6.92;6.12;;;;;;;1.06;77.78;98787.86;1779905;79;21618;-56
2021/04/05 00:42:47;;;;;;;7.47;5.65;;;;;;;1.06;78.00;98780.00;1784625;79;21148;-56
2021/04/05 00:45:16;;;;;;;7.62;5.92;;;;;;;1.07;78.12;98779.02;1780733;79;21489;-57
2021/04/05 00:47:49;;;;;;;7.75;6.10;;;;;;;1.08;78.08;98774.14;1780886;79;22339;-56
2021/04/05 00:50:21;;;;;;;5.92;5.33;;;;;;;1.07;78.13;98773.78;1782595;79;21139;-56
2021/04/05 00:52:51;;;;;;;9.30;5.45;;;;;;;1.06;78.19;98769.52;1774741;79;21179;-55
2021/04/05 00:55:19;;;;;;;10.75;5.65;;;;;;;1.04;78.31;98754.89;1775644;79;21571;-57
2021/04/05 00:57:51;;;;;;;6.22;5.60;;;;;;;1.02;78.35;98756.31;1772627;79;21093;-56
2021/04/05 01:00:39;;;;;;;6.97;5.72;;;;;;;1.01;78.47;98757.76;1771781;79;22117;-56
2021/04/05 01:03:12;;;;;;;8.10;5.42;;;;;;;0.99;78.54;98748.70;1776062;79;21096;-57
2021/04/05 01:05:40;;;;;;;7.47;5.90;;;;;;;0.98;78.70;98749.67;1773697;79;21056;-57
2021/04/05 01:08:16;;;;;;;9.73;6.65;;;;;;;1.01;78.86;98745.97;1771789;79;21122;-57
2021/04/05 01:10:46;;;;;;;7.97;6.62;;;;;;;1.03;78.96;98746.67;1779345;79;21531;-58
2021/04/05 01:13:15;;;;;;;8.53;5.37;;;;;;;1.05;79.01;98733.79;1780146;78;21281;-58
2021/04/05 01:15:42;;;;;;;7.33;5.85;;;;;;;1.06;79.02;98728.91;1767646;79;21132;-57
2021/04/05 01:18:11;;;;;;;6.55;5.83;;;;;;;1.09;79.15;98738.30;1776854;79;20981;-58
2021/04/05 01:20:38;;;;;;;6.30;5.47;;;;;;;1.09;79.29;98727.35;1755182;79;21581;-58
2021/04/05 01:23:06;;;;;;;6.65;5.95;;;;;;;1.09;79.38;98729.97;1755748;79;20950;-56
2021/04/05 01:25:34;;;;;;;6.67;5.60;;;;;;;1.09;79.49;98727.83;1761331;79;21342;-55
2021/04/05 01:28:03;;;;;;;5.53;5.03;;;;;;;1.08;79.59;98723.53;1778149;79;21006;-56
2021/04/05 01:30:50;;;;;;;7.25;5.70;;;;;;;1.07;79.69;98725.31;1778211;79;21175;-59
2021/04/05 01:33:22;;;;;;;6.25;5.20;;;;;;;1.07;79.79;98726.63;1779832;79;21060;-58
2021/04/05 01:35:54;;;;;;;6.65;5.00;;;;;;;1.06;79.89;98724.98;1777110;79;21668;-56
2021/04/05 01:38:28;;;;;;;7.33;6.10;;;;;;;1.06;79.96;98720.22;1769669;78;21606;-55
2021/04/05 01:41:04;;;;;;;7.08;5.87;;;;;;;1.04;80.00;98716.41;1785930;79;21006;-56
2021/04/05 01:43:31;;;;;;;7.92;5.80;;;;;;;1.03;80.11;98720.00;1775056;79;21033;-56
2021/04/05 01:46:00;;;;;;;7.42;6.15;;;;;;;1.03;80.16;98716.55;1775872;79;21214;-58
2021/04/05 01:48:29;;;;;;;9.00;6.10;;;;;;;1.01;80.21;98719.30;1778264;79;21555;-58
2021/04/05 01:51:07;;;;;;;9.45;6.45;;;;;;;1.01;80.25;98712.76;1780058;79;22277;-58
2021/04/05 01:53:36;;;;;;;7.58;5.80;;;;;;;1.01;80.29;98707.52;1779765;79;20970;-55
2021/04/05 01:56:07;;;;;;;6.67;5.95;;;;;;;1.02;80.33;98709.63;1773687;78;21093;-57
2021/04/05 01:58:38;;;;;;;9.10;6.12;;;;;;;1.00;80.44;98705.84;1775301;79;21547;-56
2021/04/05 02:01:14;;;;;;;6.65;5.85;;;;;;;1.00;80.51;98701.92;1769741;78;21103;-56
2021/04/05 02:03:41;;;;;;;6.60;5.62;;;;;;;1.01;80.54;98698.34;1775338;79;21347;-56
2021/04/05 02:06:19;;;;;;;6.72;6.03;;;;;;;1.00;80.62;98695.38;1769103;78;21134;-59
2021/04/05 02:08:47;;;;;;;7.47;6.17;;;;;;;1.00;80.64;98694.53;1771914;78;21143;-57
2021/04/05 02:11:25;;;;;;;7.12;5.95;;;;;;;0.99;80.64;98684.53;1776414;78;21584;-59
2021/04/05 02:13:56;;;;;;;7.85;6.17;;;;;;;1.01;80.66;98687.88;1795448;79;20976;-57
2021/04/05 02:16:25;;;;;;;7.22;5.72;;;;;;;1.00;80.60;98680.13;1783847;79;21351;-58
2021/04/05 02:18:56;;;;;;;6.75;5.75;;;;;;;0.98;80.58;98684.67;1794704;79;20950;-58
2021/04/05 02:21:25;;;;;;;6.28;5.67;;;;;;;0.98;80.56;98688.13;1783187;79;21116;-58
2021/04/05 02:23:54;;;;;;;8.00;6.17;;;;;;;0.98;80.56;98684.67;1793897;79;21603;-58
2021/04/05 02:26:25;;;;;;;8.75;6.15;;;;;;;0.97;80.56;98676.45;1786088;79;21569;-59
2021/04/05 02:28:59;;;;;;;6.67;5.58;;;;;;;0.95;80.57;98673.14;1785017;79;22430;-57
2021/04/05 02:31:29;;;;;;;6.95;6.10;;;;;;;0.94;80.58;98671.00;1785950;79;21064;-59
2021/04/05 02:33:59;;;;;;;10.63;6.90;;;;;;;0.91;80.59;98667.83;1808337;79;21116;-56
2021/04/05 02:36:31;;;;;;;8.05;6.20;;;;;;;0.89;80.69;98660.08;1804596;79;21007;-55
2021/04/05 02:39:06;;;;;;;7.05;5.35;;;;;;;0.89;80.74;98660.55;1797323;79;21135;-56
2021/04/05 02:41:37;;;;;;;8.23;5.67;;;;;;;0.89;80.77;98654.00;1790602;79;21142;-58
2021/04/05 02:44:06;;;;;;;7.65;6.53;;;;;;;0.88;80.80;98645.81;1800830;79;21570;-58
2021/04/05 02:46:36;;;;;;;6.55;5.58;;;;;;;0.88;80.83;98648.44;1782702;79;21542;-58
2021/04/05 02:49:08;;;;;;;7.15;6.35;;;;;;;0.86;80.88;98641.20;1784588;79;20997;-59
2021/04/05 02:51:41;;;;;;;8.20;6.12;;;;;;;0.85;80.91;98642.14;1782615;77;21052;-59
2021/04/05 02:54:08;;;;;;;8.05;6.72;;;;;;;0.85;80.94;98640.84;1755700;80;21372;-57
2021/04/05 02:56:38;;;;;;;6.37;5.60;;;;;;;0.83;80.96;98637.05;1782337;79;21092;-55
2021/04/05 02:59:06;;;;;;;8.30;6.78;;;;;;;0.83;80.97;98633.59;1783158;79;20934;-56
2021/04/05 03:01:34;;;;;;;6.60;5.90;;;;;;;0.82;81.03;98638.00;1793038;79;21132;-56
2021/04/05 03:04:02;;;;;;;8.98;7.00;;;;;;;0.80;81.07;98637.30;1782621;79;21163;-56
2021/04/05 03:06:30;;;;;;;11.65;7.05;;;;;;;0.80;81.12;98635.16;1794926;79;21447;-56
2021/04/05 03:11:37;;;;;;;7.65;6.78;;;;;;;0.79;81.19;98621.23;1747324;79;28538;-57
2021/04/05 03:14:08;;;;;;;8.53;6.75;;;;;;;0.73;81.23;98626.17;1709070;82;21001;-57
2021/04/05 03:16:38;;;;;;;8.70;6.90;;;;;;;0.70;81.31;98626.42;1704267;82;22017;-57
2021/04/05 03:19:05;;;;;;;8.48;6.90;;;;;;;0.67;81.47;98618.83;1704260;82;21574;-57
2021/04/05 03:21:33;;;;;;;8.60;6.53;;;;;;;0.63;81.66;98616.93;1719244;82;20926;-58
2021/04/05 03:24:01;;;;;;;8.55;6.20;;;;;;;0.61;81.81;98619.69;1719306;82;20997;-57
2021/04/05 03:26:28;;;;;;;7.97;6.03;;;;;;;0.60;81.91;98611.95;1721981;82;21632;-57
2021/04/05 03:28:56;;;;;;;8.30;6.70;;;;;;;0.59;82.00;98605.08;1719487;82;21382;-56
2021/04/05 03:31:25;;;;;;;10.15;7.22;;;;;;;0.56;82.05;98594.86;1707250;82;20957;-57
2021/04/05 03:34:14;;;;;;;8.20;6.53;;;;;;;0.55;82.12;98597.11;1704299;82;20957;-57
2021/04/05 03:36:59;;;;;;;12.05;6.75;;;;;;;0.54;82.22;98589.77;1709387;82;20940;-59
2021/04/05 03:39:27;;;;;;;11.35;9.13;;;;;;;0.54;82.27;98591.08;1741505;82;21045;-56
2021/04/05 03:42:09;;;;;;;10.40;6.85;;;;;;;0.53;82.34;98579.41;1731531;82;21363;-56
2021/04/05 03:44:51;;;;;;;9.18;7.35;;;;;;;0.52;82.37;98584.31;1719332;82;21151;-56
2021/04/05 03:47:33;;;;;;;8.15;7.17;;;;;;;0.52;82.42;98580.38;1720314;82;21116;-56
2021/04/05 03:50:30;;;;;;;9.88;7.22;;;;;;;0.52;82.50;98577.77;1700247;82;21033;-59
2021/04/05 03:53:21;;;;;;;9.83;6.40;;;;;;;0.55;82.59;98573.55;1704067;82;21187;-56
2021/04/05 03:55:54;;;;;;;9.60;7.60;;;;;;;0.65;82.67;98573.63;1709776;82;21205;-58
2021/04/05 03:58:22;;;;;;;9.30;6.35;;;;;;;0.79;82.62;98570.17;1719321;82;21123;-57
2021/04/05 04:00:49;;;;;;;8.63;6.95;;;;;;;0.98;82.46;98566.34;1736961;82;21392;-59
2021/04/05 04:03:18;;;;;;;6.55;5.83;;;;;;;1.17;82.06;98567.69;1715028;82;21202;-56
2021/04/05 04:05:55;;;;;;;7.15;5.83;;;;;;;1.40;81.56;98567.48;1711950;82;21493;-58
2021/04/05 04:08:30;;;;;;;10.90;6.53;;;;;;;1.62;81.02;98562.83;1723225;82;21344;-56
2021/04/05 04:10:59;;;;;;;6.25;5.70;;;;;;;1.86;80.22;98555.88;1732177;82;21672;-55
2021/04/05 04:13:27;;;;;;;8.43;6.17;;;;;;;2.11;79.48;98543.50;1714319;82;21021;-55
2021/04/05 04:15:55;;;;;;;8.60;6.45;;;;;;;2.36;78.73;98552.11;1714301;82;21058;-58
2021/04/05 04:18:22;;;;;;;8.33;6.42;;;;;;;2.61;77.85;98549.85;1719202;82;21177;-56
2021/04/05 04:20:50;;;;;;;10.55;6.22;;;;;;;2.81;76.96;98548.33;1720930;82;21495;-55
2021/04/05 04:23:17;;;;;;;7.78;6.33;;;;;;;3.00;76.15;98539.03;1714468;82;21156;-55
2021/04/05 04:25:45;;;;;;;11.18;6.45;;;;;;;3.19;75.34;98542.06;1713839;82;21027;-56
2021/04/05 04:28:15;;;;;;;9.00;6.25;;;;;;;3.39;74.45;98540.16;1714339;82;20927;-58
2021/04/05 04:30:43;;;;;;;8.18;6.87;;;;;;;3.57;73.82;98541.02;1713915;82;20938;-55
2021/04/05 04:33:11;;;;;;;8.38;6.70;;;;;;;3.76;72.93;98538.23;1732990;82;21450;-56
2021/04/05 04:35:40;;;;;;;7.03;5.55;;;;;;;3.97;72.39;98526.91;1713787;82;21019;-59
2021/04/05 04:38:07;;;;;;;7.65;6.22;;;;;;;4.20;71.52;98534.66;1720333;82;21128;-56
2021/04/05 04:40:35;;;;;;;8.40;6.45;;;;;;;4.47;70.66;98530.25;1721379;82;21226;-56
2021/04/05 04:43:05;;;;;;;6.50;5.90;;;;;;;4.73;69.78;98531.91;1729342;82;21503;-55
2021/04/05 04:45:34;;;;;;;6.62;6.00;;;;;;;4.98;68.74;98525.76;1714523;82;21554;-57
2021/04/05 04:48:01;;;;;;;7.20;6.50;;;;;;;5.20;67.80;98523.05;1713881;82;21071;-59
2021/04/05 04:50:29;;;;;;;8.95;6.90;;;;;;;5.43;67.10;98511.41;1714255;82;21172;-56
2021/04/05 04:52:57;;;;;;;6.85;5.95;;;;;;;5.69;66.12;98509.98;1732675;82;21359;-58
2021/04/05 04:55:25;;;;;;;8.95;6.35;;;;;;;5.92;65.21;98499.97;1717288;82;21159;-56
2021/04/05 04:58:01;;;;;;;8.88;6.28;;;;;;;6.15;64.36;98499.64;1721327;80;22366;-56
2021/04/05 05:00:31;;;;;;;8.00;6.07;;;;;;;6.36;63.51;98491.20;1716265;81;21206;-56
2021/04/05 05:02:58;;;;;;;7.50;6.17;;;;;;;6.60;62.55;98491.65;1713012;82;21603;-57
2021/04/05 05:05:33;;;;;;;6.92;5.90;;;;;;;6.79;61.78;98489.95;1714255;82;21070;-57
2021/04/05 05:08:01;;;;;;;6.17;5.58;;;;;;;6.99;61.00;98489.08;1716989;82;21148;-58
2021/04/05 05:10:28;;;;;;;6.37;5.78;;;;;;;7.20;60.21;98493.26;1716582;82;21200;-58
2021/04/05 05:12:56;;;;;;;7.47;6.62;;;;;;;7.39;59.59;98484.41;1737314;82;21192;-55
2021/04/05 05:15:24;;;;;;;6.75;6.12;;;;;;;7.61;58.82;98481.47;1721574;82;20982;-56
2021/04/05 05:17:51;;;;;;;7.65;6.90;;;;;;;7.80;58.20;98478.34;1719063;82;21056;-56
2021/04/05 05:20:20;;;;;;;7.10;6.40;;;;;;;7.90;57.18;98471.50;1720468;82;21199;-56
2021/04/05 05:22:53;;;;;;;7.87;7.08;;;;;;;8.01;56.48;98470.56;1720006;82;21423;-57
2021/04/05 05:25:21;;;;;;;7.05;6.40;;;;;;;8.16;56.06;98470.59;1732638;82;21053;-57
2021/04/05 05:27:58;;;;;;;7.10;6.40;;;;;;;8.35;55.52;98471.95;1722986;82;21127;-56
2021/04/05 05:30:26;;;;;;;8.15;7.35;;;;;;;8.51;54.97;98469.97;1722217;82;21592;-59
2021/04/05 05:32:54;;;;;;;7.33;6.62;;;;;;;8.65;54.51;98465.20;1722398;82;21127;-58
2021/04/05 05:35:23;;;;;;;9.48;7.22;;;;;;;8.83;54.01;98462.66;1721582;82;22299;-56
2021/04/05 05:38:01;;;;;;;8.03;6.78;;;;;;;9.01;53.50;98461.28;1719076;82;21206;-55
2021/04/05 05:40:28;;;;;;;8.20;7.35;;;;;;;9.19;52.91;98456.41;1723073;82;21156;-56
2021/04/05 05:43:32;;;;;;;7.65;6.85;;;;;;;9.42;52.43;98456.75;1719161;82;21056;-55
2021/04/05 05:46:31;;;;;;;6.97;6.33;;;;;;;9.61;51.74;98445.53;1722538;82;21160;-59
2021/04/05 05:49:10;;;;;;;8.95;6.85;;;;;;;9.82;50.92;98443.72;1721644;82;21369;-55
2021/04/05 05:52:13;;;;;;;8.23;6.90;;;;;;;10.05;50.43;98442.67;1720025;82;21195;-57
2021/04/05 05:55:21;;;;;;;11.12;6.62;;;;;;;10.19;49.69;98441.30;1719083;82;21136;-56
2021/04/05 05:58:10;;;;;;;8.05;6.75;;;;;;;10.42;49.30;98439.73;1721127;80;21025;-56
2021/04/05 06:00:46;;;;;;;7.47;6.50;;;;;;;10.66;48.78;98434.46;1723511;82;21215;-56
2021/04/05 06:03:23;;;;;;;7.12;6.40;;;;;;;10.87;48.10;98428.52;1731399;82;21332;-56
2021/04/05 06:06:16;;;;;;;7.00;6.30;;;;;;;11.09;47.51;98426.58;1722101;82;21099;-55
2021/04/05 06:09:23;;;;;;;6.42;5.83;;;;;;;11.22;46.95;98424.47;1740517;82;21009;-56
2021/04/05 06:12:00;;;;;;;6.42;5.83;;;;;;;11.37;45.97;98419.80;1718267;82;21706;-55
2021/04/05 06:15:12;;;;;;;7.10;5.78;;;;;;;11.42;46.01;98419.52;1721092;82;21173;-56
2021/04/05 06:18:18;;;;;;;6.12;5.53;;;;;;;11.56;45.60;98417.72;1723362;82;21359;-57
2021/04/05 06:20:51;;;;;;;5.85;5.30;;;;;;;11.75;44.93;98407.64;1719110;82;21165;-56
2021/04/05 06:23:53;;;;;;;7.08;5.40;;;;;;;11.81;44.36;98405.48;1740199;82;21186;-56
2021/04/05 06:26:40;;;;;;;6.60;5.87;;;;;;;11.91;44.29;98406.42;1731616;82;21647;-56
2021/04/05 06:29:46;;;;;;;5.92;5.17;;;;;;;12.09;43.93;98401.30;1762639;80;21105;-56
2021/04/05 06:32:44;;;;;;;8.08;5.65;;;;;;;12.19;43.02;98403.03;1719305;82;21206;-58
2021/04/05 06:35:38;;;;;;;10.68;5.20;;;;;;;12.22;43.30;98395.45;1722106;82;21201;-57
2021/04/05 06:38:17;;;;;;;7.15;5.35;;;;;;;12.33;42.82;98394.01;1744278;82;21012;-56
2021/04/05 06:40:45;;;;;;;5.05;4.58;;;;;;;12.43;42.37;98389.58;1715894;82;21177;-57
2021/04/05 06:43:39;;;;;;;5.42;4.70;;;;;;;12.54;42.04;98383.61;1719120;82;21690;-56
2021/04/05 06:46:24;;;;;;;7.95;5.05;;;;;;;12.63;41.79;98381.00;1719152;82;21363;-57
2021/04/05 06:49:35;;;;;;;5.65;5.10;;;;;;;12.69;41.52;98378.84;1706422;82;21189;-56
2021/04/05 06:52:20;;;;;;;8.65;5.90;;;;;;;12.74;41.17;98378.52;1731673;82;21149;-57
2021/04/05 06:55:09;;;;;;;5.72;4.65;;;;;;;12.74;40.59;98371.02;1719415;82;21110;-57
2021/04/05 06:58:08;;;;;;;6.00;5.40;;;;;;;12.68;40.83;98367.85;1749460;80;21144;-54
2021/04/05 07:01:13;;;;;;;5.65;5.05;;;;;;;12.75;40.75;98360.63;1735723;82;21535;-56
2021/04/05 07:04:08;;;;;;;7.05;5.85;;;;;;;12.83;40.43;98355.89;1735029;82;21035;-59
2021/04/05 07:06:47;;;;;;;8.55;5.10;;;;;;;12.89;40.15;98356.89;1736174;82;21352;-58
2021/04/05 07:09:42;;;;;;;6.25;5.08;;;;;;;13.04;40.21;98353.44;1701745;82;20938;-56
2021/04/05 07:12:46;;;;;;;5.12;4.37;;;;;;;13.14;40.02;98345.81;1719224;81;21008;-55
2021/04/05 07:15:31;;;;;;;7.12;4.50;;;;;;;13.23;39.28;98349.05;1679402;84;21397;-59
2021/04/05 07:18:26;;;;;;;4.75;4.30;;;;;;;13.33;39.29;98343.55;1683576;84;21219;-55
2021/04/05 07:21:35;;;;;;;5.08;3.90;;;;;;;13.51;38.74;98334.29;1682675;84;21131;-55
2021/04/05 07:24:28;;;;;;;5.42;4.30;;;;;;;13.60;38.05;98343.69;1680306;84;21094;-58
2021/04/05 07:27:19;;;;;;;6.40;3.75;;;;;;;13.63;37.95;98343.23;1691872;84;21186;-55
2021/04/05 07:30:08;;;;;;;4.50;3.80;;;;;;;13.69;37.65;98332.20;1691792;84;21207;-56
2021/04/05 07:33:05;;;;;;;3.70;3.40;;;;;;;13.71;37.35;98336.00;1691909;84;20973;-57
2021/04/05 07:35:54;;;;;;;;;;;;;;;13.79;37.29;98337.08;1694411;84;21048;-56
2021/04/05 07:38:56;;;;;;;6.60;4.42;;;;;;;13.89;36.57;98324.86;1691746;84;20657;-56
2021/04/05 07:41:46;;;;;;;5.78;3.75;;;;;;;13.94;36.73;98311.64;1688347;84;21129;-55
2021/04/05 07:44:31;;;;;;;4.92;3.37;;;;;;;13.85;36.41;98310.79;1699626;82;21438;-55
2021/04/05 07:47:23;;;;;;;3.35;3.05;;;;;;;13.83;36.46;98314.20;1710488;82;21176;-57
2021/04/05 07:50:29;;;;;;;3.22;2.92;;;;;;;13.92;36.28;98305.67;1708837;82;21142;-59
2021/04/05 07:53:13;;;;;;;5.35;3.75;;;;;;;14.03;36.09;98300.13;1709867;82;21209;-55
2021/04/05 07:55:41;;;;;;;4.67;3.60;;;;;;;14.04;35.94;98303.11;1709593;82;21585;-55
2021/04/05 07:58:31;;;;;;;4.20;3.00;;;;;;;14.09;35.30;98311.30;1709876;82;21206;-56
2021/04/05 08:01:16;;;;;;;4.00;3.10;;;;;;;14.16;34.62;98291.98;1709999;82;21264;-57
2021/04/05 08:04:07;;;;;;;3.00;2.80;;;;;;;14.04;34.80;98286.56;1700457;82;21264;-56
2021/04/05 08:06:40;;;;;;;3.75;3.10;;;;;;;14.07;34.70;98288.80;1709066;82;21201;-59
2021/04/05 08:09:09;;;;;;;4.50;3.67;;;;;;;13.95;34.69;98280.36;1708059;82;21019;-56
2021/04/05 08:11:47;;;;;;;3.40;2.42;;;;;;;13.83;34.57;98278.94;1705260;82;21082;-56
2021/04/05 08:14:46;;;;;;;4.72;3.80;;;;;;;13.77;34.90;98273.64;1719250;82;21206;-59
2021/04/05 08:17:57;;;;;;;7.15;2.92;;;;;;;13.80;34.76;98258.50;1719188;82;21100;-56
2021/04/05 08:20:47;;;;;;;3.60;2.70;;;;;;;13.92;35.05;98254.09;1719359;82;20991;-57
2021/04/05 08:23:32;;;;;;;2.77;2.58;;;;;;;14.21;34.43;98249.33;1731934;82;21503;-55
2021/04/05 08:26:36;;;;;;;3.10;2.80;;;;;;;14.33;34.09;98249.45;1739857;82;21199;-56
2021/04/05 08:29:14;;;;;;;4.15;2.72;;;;;;;14.59;34.10;98237.91;1729189;82;21098;-55
2021/04/05 08:32:20;;;;;;;4.08;3.17;;;;;;;14.84;33.19;98239.11;1741546;82;21213;-59
2021/04/05 08:35:11;;;;;;;2.62;2.42;;;;;;;14.79;32.84;98225.59;1721154;82;21084;-56
2021/04/05 08:38:04;;;;;;;4.35;2.65;;;;;;;14.58;31.99;98222.89;1736867;82;21202;-57
2021/04/05 08:41:02;;;;;;;8.63;2.47;;;;;;;14.29;32.43;98213.47;1719307;82;21624;-56
2021/04/05 08:44:01;;;;;;;4.90;2.92;;;;;;;14.14;32.24;98209.30;1722565;82;21142;-56
2021/04/05 08:46:32;;;;;;;3.40;2.33;;;;;;;14.04;32.09;98206.34;1724190;82;21074;-55
2021/04/05 08:49:01;;;;;;;2.98;2.55;;;;;;;14.02;32.04;98219.63;1719233;82;21020;-55
2021/04/05 08:51:44;;;;;;;2.52;2.15;;;;;;;14.01;32.06;98196.08;1719192;82;21152;-57
2021/04/05 08:54:16;;;;;;;5.10;2.37;;;;;;;13.97;31.76;98200.26;1719261;82;21373;-55
2021/04/05 08:57:04;;;;;;;2.75;2.45;;;;;;;14.01;31.54;98192.59;1720457;82;21616;-56
2021/04/05 08:59:57;;;;;;;3.83;2.55;;;;;;;14.04;36.44;98185.46;1719076;82;21089;-54
2021/04/05 09:02:38;;;;;;;3.65;2.08;;;;;;;14.17;33.45;98187.47;1723976;82;21152;-55
2021/04/05 09:05:10;;;;;;;3.05;1.95;;;;;;;14.23;31.53;98175.06;1719246;82;21112;-57
2021/04/05 09:08:03;;;;;;;2.27;2.08;;;;;;;14.31;31.32;98176.61;1718814;82;21388;-57
2021/04/05 09:10:51;;;;;;;2.65;2.08;;;;;;;14.46;31.17;98174.38;1719702;82;21152;-57
2021/04/05 09:13:24;;;;;;;2.30;1.95;;;;;;;14.67;30.23;98165.34;1710265;82;21216;-56
2021/04/05 09:16:23;;;;;;;1.90;1.80;;;;;;;14.73;29.61;98164.95;1705466;82;21093;-56
2021/04/05 09:19:12;;;;;;;2.95;1.95;;;;;;;14.68;28.80;98155.42;1706484;82;21121;-56
2021/04/05 09:22:17;;;;;;;2.30;1.77;;;;;;;14.68;28.52;98144.72;1705727;82;21360;-56
2021/04/05 09:25:27;;;;;;;1.73;1.63;;;;;;;14.68;28.54;98140.19;1709105;82;21121;-56
2021/04/05 09:28:07;;;;;;;2.67;1.70;;;;;;;14.65;28.76;98136.63;1713811;81;21780;-54
2021/04/05 09:31:13;;;;;;;3.90;1.90;;;;;;;14.69;28.39;98131.64;1707493;82;21106;-56
2021/04/05 09:34:25;;;;;;;6.17;1.92;;;;;;;14.69;28.42;98131.13;1707129;82;21643;-55
2021/04/05 09:37:11;;;;;;;2.80;1.92;;;;;;;14.58;28.77;98119.86;1707538;82;21389;-56
2021/04/05 09:40:04;;;;;;;3.33;2.00;;;;;;;14.58;28.44;98123.05;1705415;82;21144;-57
2021/04/05 09:43:01;;;;;;;6.05;1.80;;;;;;;14.67;28.47;98107.80;1703853;82;21547;-57
2021/04/05 09:45:53;;;;;;;4.55;2.27;;;;;;;14.86;28.37;98110.39;1705406;82;21163;-56
2021/04/05 09:48:34;;;;;;;3.62;1.80;;;;;;;14.99;27.95;98093.56;1708185;82;21572;-56
2021/04/05 09:51:32;;;;;;;5.42;2.17;;;;;;;15.04;27.55;98090.21;1707757;82;21383;-56
2021/04/05 09:54:21;;;;;;;2.67;1.60;;;;;;;15.25;27.16;98101.70;1705667;82;21204;-56
2021/04/05 09:56:55;;;;;;;4.05;2.00;;;;;;;15.35;26.94;98084.51;1715616;81;21112;-57
2021/04/05 09:59:40;;;;;;;4.90;1.70;;;;;;;15.28;27.11;98084.61;1710628;82;21085;-58
2021/04/05 10:02:11;;;;;;;2.92;1.80;;;;;;;15.31;26.90;98076.62;1713999;82;21156;-58
2021/04/05 10:04:39;;;;;;;2.22;1.98;;;;;;;15.20;27.11;98084.95;1714902;82;21413;-58
2021/04/05 10:07:07;;;;;;;2.55;1.47;;;;;;;15.20;27.34;98076.92;1709956;82;21132;-57
2021/04/05 10:09:38;;;;;;;2.42;1.72;;;;;;;15.30;27.10;98073.13;1707288;82;21164;-57
2021/04/05 10:12:07;;;;;;;5.92;1.62;;;;;;;15.42;26.66;98075.30;1706679;82;21278;-59
2021/04/05 10:14:39;;;;;;;4.95;1.72;;;;;;;15.47;26.44;98071.11;1691569;82;21129;-59
2021/04/05 10:17:06;;;;;;;3.10;1.75;;;;;;;15.38;26.57;98071.44;1707917;82;22307;-58
2021/04/05 10:19:36;;;;;;;2.33;1.70;;;;;;;15.28;26.78;98048.44;1708803;82;21184;-56
2021/04/05 10:22:08;;;;;;;2.35;2.15;;;;;;;15.32;27.16;98054.16;1707257;82;21708;-57
2021/04/05 10:24:41;;;;;;;2.87;1.77;;;;;;;15.41;26.97;98044.17;1707602;82;21188;-56
2021/04/05 10:27:08;;;;;;;2.20;2.00;;;;;;;15.41;26.80;98052.22;1706086;82;21566;-58
2021/04/05 10:29:36;;;;;;;5.05;2.30;;;;;;;15.17;26.95;98043.11;1707545;82;21385;-56
2021/04/05 10:32:05;;;;;;;3.67;2.42;;;;;;;14.79;27.61;98032.84;1706703;82;21104;-55
2021/04/05 10:34:35;;;;;;;8.75;2.60;;;;;;;14.69;27.02;98038.78;1705543;82;21124;-55
2021/04/05 10:37:13;;;;;;;7.80;2.77;;;;;;;14.64;27.50;98043.19;1707789;82;21555;-56
2021/04/05 10:39:53;;;;;;;9.33;2.42;;;;;;;14.70;27.86;98034.25;1701873;82;21183;-59
2021/04/05 10:42:48;;;;;;;7.35;2.80;;;;;;;14.74;28.12;98022.02;1705505;82;21447;-60
2021/04/05 10:45:23;;;;;;;9.10;3.37;;;;;;;14.73;27.98;98021.75;1701527;82;21026;-56
2021/04/05 10:48:19;;;;;;;5.95;3.20;;;;;;;14.60;28.39;98028.10;1707546;82;21164;-59
2021/04/05 10:50:58;;;;;;;4.65;2.62;;;;;;;14.53;28.54;98018.03;1705757;82;21075;-59
2021/04/05 10:53:27;;;;;;;5.10;2.83;;;;;;;14.51;28.67;98016.64;1706962;82;21066;-58
2021/04/05 10:55:58;;;;;;;6.35;2.98;;;;;;;14.45;28.84;98016.21;1707699;81;21385;-59
2021/04/05 10:58:30;;;;;;;10.23;4.40;;;;;;;14.35;28.92;98008.75;1705448;82;21142;-57
2021/04/05 11:01:00;;;;;;;4.97;2.50;;;;;;;14.21;29.10;98015.30;1708398;82;21160;-57
2021/04/05 11:03:28;;;;;;;4.53;2.95;;;;;;;14.09;29.42;98003.77;1708493;82;21085;-57
2021/04/05 11:06:00;;;;;;;9.48;4.45;;;;;;;14.01;29.67;98006.76;1706932;82;21195;-57
2021/04/05 11:08:30;;;;;;;4.47;2.85;;;;;;;13.93;29.87;97995.87;1705447;82;21191;-58
2021/04/05 11:11:11;;;;;;;7.62;3.20;;;;;;;13.87;30.24;97994.09;1711368;82;21238;-56
2021/04/05 11:13:50;;;;;;;7.45;3.72;;;;;;;13.98;30.17;97987.16;1715397;82;21706;-59
2021/04/05 11:16:19;;;;;;;6.42;3.47;;;;;;;13.89;29.89;97976.52;1719063;82;21499;-58
2021/04/05 11:18:59;;;;;;;14.20;4.10;;;;;;;13.77;30.11;97979.64;1721694;82;21591;-58
2021/04/05 11:21:41;;;;;;;6.70;3.40;;;;;;;13.68;30.43;97986.36;1725818;82;21566;-59
2021/04/05 11:24:10;;;;;;;7.12;3.40;;;;;;;13.60;30.43;97962.10;1725757;82;21215;-56
2021/04/05 11:26:38;;;;;;;8.90;4.10;;;;;;;13.53;30.50;97958.16;1720527;82;21203;-56
2021/04/05 11:29:13;;;;;;;5.92;3.17;;;;;;;13.51;30.42;97954.91;1718997;82;21108;-57
2021/04/05 11:31:45;;;;;;;6.08;3.05;;;;;;;13.48;30.46;97934.50;1704823;82;21144;-59
2021/04/05 11:34:15;;;;;;;7.37;3.10;;;;;;;13.40;30.26;97944.19;1726986;82;21364;-56
2021/04/05 11:36:47;;;;;;;3.10;2.80;;;;;;;13.11;30.74;97916.40;1726525;82;21231;-56
2021/04/05 11:39:19;;;;;;;6.00;3.42;;;;;;;13.01;30.68;97919.54;1726970;82;21112;-56
2021/04/05 11:41:52;;;;;;;7.20;3.15;;;;;;;12.99;31.06;97900.78;1725922;82;21191;-56
2021/04/05 11:44:23;;;;;;;5.87;2.80;;;;;;;12.94;31.04;97908.64;1727011;82;21109;-58
2021/04/05 11:46:52;;;;;;;7.58;2.85;;;;;;;12.72;31.31;97886.91;1730844;82;21442;-57
2021/04/05 11:49:20;;;;;;;5.53;2.55;;;;;;;12.65;30.54;97892.85;1695752;82;21033;-56
2021/04/05 11:51:55;;;;;;;3.83;2.75;;;;;;;12.64;30.57;97893.08;1724386;82;21195;-57
2021/04/05 11:54:31;;;;;;;4.00;2.65;;;;;;;12.66;30.52;97879.00;1728474;82;21108;-59
2021/04/05 11:57:02;;;;;;;5.90;2.85;;;;;;;12.62;30.88;97865.27;1725143;82;21124;-57
2021/04/05 11:59:30;;;;;;;5.37;2.83;;;;;;;12.68;30.90;97859.58;1729754;82;21431;-55
2021/04/05 12:02:03;;;;;;;5.22;3.00;;;;;;;12.71;30.85;97843.13;1723035;82;21061;-56
2021/04/05 12:04:38;;;;;;;3.42;2.58;;;;;;;12.63;31.01;97863.42;1722341;82;21181;-56
2021/04/05 12:07:20;;;;;;;6.83;3.50;;;;;;;12.51;31.31;97850.03;1719251;82;21175;-56
2021/04/05 12:10:03;;;;;;;3.67;2.67;;;;;;;12.44;31.72;97836.44;1733807;82;21184;-55
2021/04/05 12:12:45;;;;;;;4.97;2.90;;;;;;;12.41;31.90;97839.58;1737948;81;22291;-56
2021/04/05 12:15:16;;;;;;;3.67;2.50;;;;;;;12.48;31.85;97841.64;1715616;82;21591;-58
2021/04/05 12:17:49;;;;;;;2.85;2.60;;;;;;;12.45;31.68;97827.41;1712922;82;21151;-57
2021/04/05 12:20:19;;;;;;;6.40;3.15;;;;;;;12.43;31.78;97813.49;1717437;82;21112;-57
2021/04/05 12:22:47;;;;;;;7.55;2.83;;;;;;;12.36;32.32;97816.22;1714190;82;21559;-58
2021/04/05 12:25:15;;;;;;;3.62;3.27;;;;;;;12.38;32.03;97806.17;1702392;82;21394;-59
2021/04/05 12:27:43;;;;;;;6.03;3.30;;;;;;;12.32;32.19;97802.53;1721049;82;21128;-58